createdAt,value
2022-12-04T00:01:13.909Z,20.77
2022-12-04T00:03:41.878Z,18.33
2022-12-04T00:06:10.890Z,19.30
2022-12-04T00:08:39.151Z,21.37
2022-12-04T00:11:08.061Z,18.53
2022-12-04T00:13:36.864Z,19.90
2022-12-04T00:16:07.357Z,22.10
2022-12-04T00:18:35.510Z,20.37
2022-12-04T00:21:05.291Z,20.47
2022-12-04T00:23:33.267Z,20.20
2022-12-04T00:26:01.712Z,17.53
2022-12-04T00:28:29.758Z,20.03
2022-12-04T00:30:57.727Z,20.43
2022-12-04T00:33:27.069Z,20.53
2022-12-04T00:35:58.438Z,20.23
2022-12-04T00:38:26.659Z,18.57
2022-12-04T00:40:54.961Z,20.90
2022-12-04T00:43:23.888Z,18.83
2022-12-04T00:45:51.972Z,20.77
2022-12-04T00:48:20.227Z,16.47
2022-12-04T00:50:49.588Z,19.23
2022-12-04T00:53:17.640Z,20.93
2022-12-04T00:55:46.112Z,19.63
2022-12-04T00:58:14.118Z,18.73
2022-12-04T01:00:42.859Z,17.00
2022-12-04T01:03:11.124Z,17.63
2022-12-04T01:05:42.563Z,16.37
2022-12-04T01:08:12.995Z,21.30
2022-12-04T01:10:41.551Z,17.37
2022-12-04T01:13:09.836Z,22.07
2022-12-04T01:15:39.886Z,18.60
2022-12-04T01:18:07.904Z,19.77
2022-12-04T01:20:36.308Z,21.40
2022-12-04T01:23:04.271Z,20.33
2022-12-04T01:25:33.825Z,21.50
2022-12-04T01:28:01.810Z,21.73
2022-12-04T01:30:30.074Z,17.97
2022-12-04T01:32:57.958Z,19.70
2022-12-04T01:35:25.952Z,23.73
2022-12-04T01:37:53.898Z,18.30
2022-12-04T01:40:21.911Z,23.83
2022-12-04T01:42:51.307Z,21.43
2022-12-04T01:45:43.055Z,20.77
2022-12-04T01:48:14.607Z,17.93
2022-12-04T01:50:43.681Z,19.13
2022-12-04T01:53:12.181Z,20.93
2022-12-04T01:55:40.344Z,18.67
2022-12-04T01:58:10.261Z,21.30
2022-12-04T02:00:38.314Z,21.43
2022-12-04T02:03:06.509Z,21.83
2022-12-04T02:05:35.717Z,17.13
2022-12-04T02:08:05.860Z,18.97
2022-12-04T02:10:38.206Z,18.97
2022-12-04T02:13:09.003Z,18.93
2022-12-04T02:15:41.256Z,19.00
2022-12-04T02:18:11.788Z,19.93
2022-12-04T02:20:42.606Z,24.53
2022-12-04T02:23:31.150Z,18.40
2022-12-04T02:26:03.206Z,18.07
2022-12-04T02:28:35.292Z,17.07
2022-12-04T02:31:04.844Z,15.50
2022-12-04T02:33:36.307Z,18.33
2022-12-04T02:36:07.302Z,15.07
2022-12-04T02:38:37.999Z,16.10
2022-12-04T02:41:10.165Z,16.20
2022-12-04T02:43:41.662Z,16.73
2022-12-04T02:46:12.642Z,17.97
2022-12-04T02:48:42.496Z,15.07
2022-12-04T02:51:11.722Z,17.37
2022-12-04T02:53:41.609Z,14.80
2022-12-04T02:56:11.177Z,15.23
2022-12-04T02:58:42.565Z,17.17
2022-12-04T03:01:19.725Z,15.87
2022-12-04T03:03:51.064Z,12.90
2022-12-04T03:06:19.914Z,12.53
2022-12-04T03:08:49.182Z,12.63
2022-12-04T03:11:17.206Z,13.87
2022-12-04T03:13:48.980Z,13.27
2022-12-04T03:16:18.526Z,14.73
2022-12-04T03:18:48.492Z,12.33
2022-12-04T03:21:17.739Z,12.60
2022-12-04T03:23:47.666Z,15.47
2022-12-04T03:26:20.491Z,11.73
2022-12-04T03:28:52.461Z,13.00
2022-12-04T03:31:24.128Z,15.83
2022-12-04T03:33:53.170Z,12.27
2022-12-04T03:36:23.870Z,13.70
2022-12-04T03:38:55.059Z,11.90
2022-12-04T03:41:27.324Z,13.37
2022-12-04T03:43:58.483Z,13.73
2022-12-04T03:46:29.428Z,13.93
2022-12-04T03:49:01.261Z,14.63
2022-12-04T03:51:32.344Z,14.27
2022-12-04T03:54:04.235Z,14.67
2022-12-04T03:56:34.201Z,16.00
2022-12-04T03:59:06.387Z,14.13
2022-12-04T04:01:36.695Z,14.97
2022-12-04T04:04:07.745Z,16.00
2022-12-04T04:06:39.184Z,14.53
2022-12-04T04:09:10.889Z,13.47
2022-12-04T04:11:41.853Z,13.60
2022-12-04T04:14:32.029Z,12.57
2022-12-04T04:17:18.966Z,10.80
2022-12-04T04:20:06.567Z,11.93
2022-12-04T04:22:55.999Z,10.67
2022-12-04T04:25:25.450Z,14.43
2022-12-04T04:27:53.745Z,10.23
2022-12-04T04:30:23.356Z,14.83
2022-12-04T04:32:54.276Z,10.87
2022-12-04T04:35:22.813Z,13.43
2022-12-04T04:37:55.172Z,13.57
2022-12-04T04:40:25.261Z,15.27
2022-12-04T04:42:57.185Z,10.87
2022-12-04T04:45:28.120Z,12.23
2022-12-04T04:47:58.364Z,11.73
2022-12-04T04:50:26.430Z,12.17
2022-12-04T04:52:56.193Z,14.07
2022-12-04T04:55:24.708Z,11.70
2022-12-04T04:57:52.674Z,14.80
2022-12-04T05:00:21.876Z,11.30
2022-12-04T05:02:51.470Z,13.57
2022-12-04T05:05:19.496Z,14.37
2022-12-04T05:07:47.481Z,12.97
2022-12-04T05:10:15.509Z,13.17
2022-12-04T05:12:43.470Z,12.13
2022-12-04T05:15:11.946Z,12.63
2022-12-04T05:17:39.887Z,14.57
2022-12-04T05:20:09.007Z,13.10
2022-12-04T05:22:37.671Z,12.70
2022-12-04T05:25:06.186Z,10.27
2022-12-04T05:27:34.290Z,13.70
2022-12-04T05:30:02.311Z,10.13
2022-12-04T05:32:30.586Z,12.30
2022-12-04T05:34:59.177Z,12.80
2022-12-04T05:37:28.578Z,14.37
2022-12-04T05:39:56.680Z,12.17
2022-12-04T05:42:24.777Z,11.87
2022-12-04T05:44:52.734Z,12.03
2022-12-04T05:47:20.674Z,13.90
2022-12-04T05:49:48.625Z,13.23
2022-12-04T05:52:16.515Z,15.23
2022-12-04T05:54:45.821Z,20.10
2022-12-04T05:57:13.797Z,10.37
2022-12-04T05:59:41.692Z,12.40
2022-12-04T06:02:09.679Z,10.80
2022-12-04T06:04:38.352Z,13.17
2022-12-04T06:07:07.064Z,12.73
2022-12-04T06:09:35.127Z,12.27
2022-12-04T06:12:05.225Z,17.20
2022-12-04T06:14:39.128Z,15.53
2022-12-04T06:17:07.668Z,12.20
2022-12-04T06:19:35.931Z,15.07
2022-12-04T06:22:04.067Z,13.13
2022-12-04T06:24:32.171Z,12.67
2022-12-04T06:29:49.940Z,13.60
2022-12-04T06:32:21.828Z,12.83
2022-12-04T06:34:51.684Z,9.63
2022-12-04T06:37:20.035Z,10.83
2022-12-04T06:39:48.224Z,12.17
2022-12-04T06:42:16.273Z,11.43
2022-12-04T06:44:44.564Z,11.20
2022-12-04T06:47:14.249Z,12.17
2022-12-04T06:49:45.370Z,12.67
2022-12-04T06:52:16.664Z,14.60
2022-12-04T06:54:44.898Z,12.13
2022-12-04T06:57:15.610Z,14.23
2022-12-04T06:59:43.774Z,15.13
2022-12-04T07:02:16.055Z,11.97
2022-12-04T07:04:44.573Z,12.20
2022-12-04T07:07:12.689Z,14.37
2022-12-04T07:09:40.663Z,14.57
2022-12-04T07:12:08.703Z,12.50
2022-12-04T07:14:36.977Z,13.33
2022-12-04T07:17:05.125Z,11.53
2022-12-04T07:19:34.752Z,12.53
2022-12-04T07:22:02.741Z,13.33
2022-12-04T07:24:30.746Z,13.07
2022-12-04T07:26:58.836Z,12.57
2022-12-04T07:29:26.769Z,11.13
2022-12-04T07:31:54.879Z,13.50
2022-12-04T07:34:22.917Z,13.43
2022-12-04T07:36:52.283Z,11.67
2022-12-04T07:39:20.303Z,13.13
2022-12-04T07:41:48.389Z,12.07
2022-12-04T07:44:16.641Z,14.23
2022-12-04T07:46:44.615Z,15.33
2022-12-04T07:49:12.907Z,15.50
2022-12-04T07:51:40.851Z,15.30
2022-12-04T07:54:10.274Z,14.90
2022-12-04T07:56:38.257Z,13.60
2022-12-04T07:59:06.297Z,14.77
2022-12-04T08:01:34.386Z,16.33
2022-12-04T08:04:03.565Z,16.13
2022-12-04T08:06:31.808Z,16.63
2022-12-04T08:09:03.524Z,15.50
2022-12-04T08:11:35.988Z,16.80
2022-12-04T08:14:05.480Z,16.30
2022-12-04T08:16:34.139Z,15.93
2022-12-04T08:19:02.341Z,15.23
2022-12-04T08:21:31.149Z,12.40
2022-12-04T08:23:59.428Z,13.17
2022-12-04T08:26:28.275Z,14.37
2022-12-04T08:28:58.452Z,15.53
2022-12-04T08:31:27.722Z,13.57
2022-12-04T08:33:57.259Z,17.90
2022-12-04T08:36:25.394Z,15.57
2022-12-04T08:38:53.415Z,18.57
2022-12-04T08:41:24.382Z,17.23
2022-12-04T08:43:54.816Z,19.17
2022-12-04T08:46:25.025Z,18.10
2022-12-04T08:48:53.235Z,19.63
2022-12-04T08:51:22.702Z,16.83
2022-12-04T08:53:53.756Z,19.90
2022-12-04T08:56:21.711Z,20.17
2022-12-04T08:58:49.644Z,20.43
2022-12-04T09:01:18.026Z,19.60
2022-12-04T09:03:47.499Z,21.83
2022-12-04T09:06:16.236Z,23.43
2022-12-04T09:08:44.512Z,20.37
2022-12-04T09:11:13.642Z,22.97
2022-12-04T09:13:42.036Z,20.57
2022-12-04T09:16:10.910Z,19.70
2022-12-04T09:18:39.330Z,21.30
2022-12-04T09:21:09.842Z,23.33
2022-12-04T09:23:38.667Z,19.50
2022-12-04T09:26:07.489Z,20.60
2022-12-04T09:28:35.841Z,19.67
2022-12-04T09:31:06.113Z,19.37
2022-12-04T09:33:34.676Z,20.40
2022-12-04T09:36:03.256Z,19.63
2022-12-04T09:38:32.712Z,21.93
2022-12-04T09:41:04.793Z,18.03
2022-12-04T09:43:34.970Z,23.10
2022-12-04T09:46:07.549Z,20.77
2022-12-04T09:48:37.601Z,19.77
2022-12-04T09:51:07.390Z,19.50
2022-12-04T09:53:43.119Z,19.53
2022-12-04T09:56:13.603Z,16.77
2022-12-04T09:58:43.420Z,18.07
2022-12-04T10:01:18.374Z,19.10
2022-12-04T10:03:46.394Z,22.53
2022-12-04T10:06:17.751Z,19.57
2022-12-04T10:08:48.095Z,22.50
2022-12-04T10:11:18.496Z,18.87
2022-12-04T10:13:59.522Z,18.80
2022-12-04T10:16:29.873Z,20.77
2022-12-04T10:19:03.042Z,19.40
2022-12-04T10:21:36.504Z,22.67
2022-12-04T10:24:12.734Z,19.93
2022-12-04T10:26:41.893Z,20.13
2022-12-04T10:29:15.253Z,23.10
2022-12-04T10:31:45.819Z,20.73
2022-12-04T10:34:17.806Z,18.23
2022-12-04T10:36:47.819Z,21.60
2022-12-04T10:39:21.748Z,21.03
2022-12-04T10:41:54.012Z,21.27
2022-12-04T10:44:23.523Z,20.50
2022-12-04T10:46:52.257Z,22.20
2022-12-04T10:49:21.018Z,21.70
2022-12-04T10:51:49.316Z,21.13
2022-12-04T10:54:23.783Z,20.60
2022-12-04T10:56:52.868Z,18.57
2022-12-04T10:59:21.337Z,21.60
2022-12-04T11:01:50.112Z,19.00
2022-12-04T11:04:26.456Z,17.20
2022-12-04T11:07:02.736Z,20.07
2022-12-04T11:09:33.031Z,21.67
2022-12-04T11:12:11.654Z,18.10
2022-12-04T11:14:45.524Z,17.83
2022-12-04T11:17:18.451Z,20.70
2022-12-04T11:19:48.770Z,18.37
2022-12-04T11:22:19.736Z,21.40
2022-12-04T11:24:57.234Z,19.40
2022-12-04T11:27:27.339Z,19.23
2022-12-04T11:29:55.912Z,17.57
2022-12-04T11:32:25.638Z,20.23
2022-12-04T11:34:54.934Z,20.10
2022-12-04T11:37:24.647Z,21.47
2022-12-04T11:39:54.758Z,18.10
2022-12-04T11:42:25.635Z,20.43
2022-12-04T11:44:54.797Z,15.80
2022-12-04T11:47:23.890Z,17.27
2022-12-04T11:50:13.873Z,19.40
2022-12-04T11:52:51.574Z,16.57
2022-12-04T11:55:29.063Z,17.70
2022-12-04T11:58:06.342Z,17.03
2022-12-04T12:00:36.627Z,17.77
2022-12-04T12:03:11.872Z,20.90
2022-12-04T12:05:53.865Z,16.93
2022-12-04T12:08:26.330Z,17.67
2022-12-04T12:10:58.323Z,17.40
2022-12-04T12:13:32.115Z,17.50
2022-12-04T12:16:02.058Z,16.40
2022-12-04T12:18:40.145Z,20.20
2022-12-04T12:21:13.916Z,21.87
2022-12-04T12:23:56.244Z,15.63
2022-12-04T12:26:28.673Z,19.43
2022-12-04T12:29:03.791Z,16.63
2022-12-04T12:31:38.947Z,16.23
2022-12-04T12:34:09.887Z,15.50
2022-12-04T12:36:43.761Z,19.00
2022-12-04T12:39:14.051Z,14.43
2022-12-04T12:41:45.401Z,15.03
2022-12-04T12:44:15.567Z,18.27
2022-12-04T12:46:49.121Z,15.90
2022-12-04T12:49:19.387Z,11.93
2022-12-04T12:51:49.406Z,18.50
2022-12-04T12:54:23.205Z,16.77
2022-12-04T12:56:55.310Z,18.10
2022-12-04T12:59:25.422Z,15.03
2022-12-04T13:02:00.553Z,18.90
2022-12-04T13:04:33.827Z,15.83
2022-12-04T13:07:06.113Z,15.20
2022-12-04T13:09:35.446Z,13.57
2022-12-04T13:12:07.715Z,16.23
2022-12-04T13:14:36.164Z,15.30
2022-12-04T13:17:05.494Z,16.77
2022-12-04T13:19:36.248Z,15.73
2022-12-04T13:22:13.246Z,13.43
2022-12-04T13:24:54.010Z,13.83
2022-12-04T13:27:28.692Z,14.43
2022-12-04T13:30:06.366Z,15.67
2022-12-04T13:32:39.412Z,17.00
2022-12-04T13:35:16.612Z,13.00
2022-12-04T13:37:49.793Z,15.60
2022-12-04T13:40:29.787Z,16.77
2022-12-04T13:43:16.250Z,15.27
2022-12-04T13:45:48.315Z,16.20
2022-12-04T13:48:27.344Z,14.23
2022-12-04T13:51:02.312Z,15.13
2022-12-04T13:53:34.082Z,12.90
2022-12-04T13:56:07.981Z,15.50
2022-12-04T13:58:39.818Z,13.83
2022-12-04T14:01:23.582Z,14.63
2022-12-04T14:03:55.461Z,14.73
2022-12-04T14:06:24.535Z,16.40
2022-12-04T14:08:56.641Z,18.30
2022-12-04T14:11:25.217Z,13.67
2022-12-04T14:13:54.478Z,14.33
2022-12-04T14:16:25.796Z,14.83
2022-12-04T14:18:55.042Z,14.23
2022-12-04T14:21:23.532Z,17.63
2022-12-04T14:23:52.308Z,16.33
2022-12-04T14:26:21.373Z,15.37
2022-12-04T14:28:49.314Z,16.90
2022-12-04T14:31:22.512Z,15.33
2022-12-04T14:33:54.280Z,14.43
2022-12-04T14:36:25.338Z,14.80
2022-12-04T14:39:01.927Z,18.43
2022-12-04T14:41:30.059Z,19.20
2022-12-04T14:43:58.349Z,21.70
2022-12-04T14:46:28.800Z,15.63
2022-12-04T14:49:01.177Z,15.00
2022-12-04T14:51:32.522Z,16.53
2022-12-04T14:54:06.082Z,13.67
2022-12-04T14:56:41.970Z,15.93
2022-12-04T14:59:16.443Z,13.87
2022-12-04T15:01:44.444Z,14.30
2022-12-04T15:04:18.540Z,15.10
2022-12-04T15:06:48.801Z,13.63
2022-12-04T15:09:35.688Z,12.13
2022-12-04T15:12:31.181Z,12.17
2022-12-04T15:15:00.110Z,12.73
2022-12-04T15:17:28.132Z,13.30
2022-12-04T15:19:57.526Z,13.13
2022-12-04T15:22:26.797Z,11.63
2022-12-04T15:24:55.474Z,14.13
2022-12-04T15:27:31.710Z,13.20
2022-12-04T15:30:00.799Z,13.40
2022-12-04T15:32:29.845Z,12.07
2022-12-04T15:35:01.339Z,13.23
2022-12-04T15:37:29.959Z,11.53
2022-12-04T15:39:58.952Z,13.40
2022-12-04T15:42:27.949Z,13.60
2022-12-04T15:45:01.280Z,16.67
2022-12-04T15:47:30.531Z,14.30
2022-12-04T15:50:10.445Z,13.97
2022-12-04T15:52:38.865Z,16.97
2022-12-04T15:55:09.119Z,15.57
2022-12-04T15:57:38.649Z,13.47
2022-12-04T16:00:07.719Z,15.30
2022-12-04T16:02:36.755Z,11.80
2022-12-04T16:05:13.742Z,13.53
2022-12-04T16:07:49.418Z,15.40
2022-12-04T16:10:21.699Z,12.73
2022-12-04T16:12:53.527Z,13.13
2022-12-04T16:15:21.627Z,14.50
2022-12-04T16:17:49.577Z,13.40
2022-12-04T16:20:19.345Z,13.70
2022-12-04T16:22:48.588Z,15.87
2022-12-04T16:25:16.949Z,13.10
2022-12-04T16:27:44.971Z,13.90
2022-12-04T16:30:14.849Z,13.93
2022-12-04T16:32:42.882Z,16.80
2022-12-04T16:35:14.869Z,13.73
2022-12-04T16:37:44.497Z,14.97
2022-12-04T16:40:13.187Z,14.60
2022-12-04T16:42:41.967Z,14.17
2022-12-04T16:45:19.674Z,13.13
2022-12-04T16:47:50.093Z,17.70
2022-12-04T16:50:18.390Z,12.97
2022-12-04T16:52:47.738Z,16.37
2022-12-04T16:55:25.885Z,15.80
2022-12-04T16:57:53.922Z,16.93
2022-12-04T17:00:22.188Z,14.30
2022-12-04T17:02:50.247Z,15.37
2022-12-04T17:05:20.186Z,17.07
2022-12-04T17:07:50.168Z,16.80
2022-12-04T17:10:23.403Z,16.77
2022-12-04T17:12:53.501Z,15.00
2022-12-04T17:15:21.914Z,14.33
2022-12-04T17:17:50.016Z,15.07
2022-12-04T17:20:19.254Z,12.87
2022-12-04T17:22:47.442Z,14.23
2022-12-04T17:25:17.101Z,19.40
2022-12-04T17:27:45.242Z,18.27
2022-12-04T17:30:13.752Z,16.37
2022-12-04T17:32:41.764Z,13.90
2022-12-04T17:35:10.634Z,15.53
2022-12-04T17:37:38.810Z,16.03
2022-12-04T17:40:07.623Z,18.03
2022-12-04T17:42:37.659Z,16.30
2022-12-04T17:45:06.067Z,18.63
2022-12-04T17:47:35.481Z,16.97
2022-12-04T17:50:03.491Z,16.37
2022-12-04T17:52:31.395Z,13.73
2022-12-04T17:54:59.448Z,14.80
2022-12-04T17:57:27.646Z,16.17
2022-12-04T17:59:56.971Z,16.73
2022-12-04T18:02:24.891Z,20.73
2022-12-04T18:04:55.400Z,16.40
2022-12-04T18:07:23.781Z,15.33
2022-12-04T18:09:51.775Z,20.67
2022-12-04T18:12:19.896Z,21.10
2022-12-04T18:14:47.811Z,23.10
2022-12-04T18:17:17.720Z,19.43
2022-12-04T18:19:45.682Z,18.70
2022-12-04T18:22:13.921Z,24.00
2022-12-04T18:24:41.987Z,20.13
2022-12-04T18:27:09.954Z,16.37
2022-12-04T18:29:38.040Z,18.40
2022-12-04T18:32:06.433Z,27.13
2022-12-04T18:34:36.254Z,34.30
2022-12-04T18:37:04.686Z,24.17
2022-12-04T18:39:32.696Z,18.17
2022-12-04T18:42:00.675Z,18.10
2022-12-04T18:44:28.698Z,15.97
2022-12-04T18:46:56.705Z,14.43
2022-12-04T18:49:24.697Z,16.30
2022-12-04T18:51:54.068Z,12.60
2022-12-04T18:54:23.272Z,16.00
2022-12-04T18:56:51.610Z,15.07
2022-12-04T18:59:20.325Z,18.43
2022-12-04T19:01:50.065Z,15.77
2022-12-04T19:04:19.551Z,14.63
2022-12-04T19:06:48.259Z,15.03
2022-12-04T19:09:18.577Z,16.63
2022-12-04T19:11:47.007Z,17.07
2022-12-04T19:14:22.634Z,18.47
2022-12-04T19:16:51.163Z,19.70
2022-12-04T19:19:19.475Z,17.93
2022-12-04T19:21:47.540Z,17.20
2022-12-04T19:24:15.556Z,19.00
2022-12-04T19:26:45.082Z,19.23
2022-12-04T19:29:14.274Z,20.23
2022-12-04T19:31:42.458Z,22.90
2022-12-04T19:34:10.388Z,21.33
2022-12-04T19:36:38.460Z,18.53
2022-12-04T19:39:07.552Z,20.13
2022-12-04T19:41:37.328Z,26.77
2022-12-04T19:44:32.457Z,22.27
2022-12-04T19:46:54.934Z,23.83
2022-12-04T19:49:22.948Z,22.33
2022-12-04T19:51:51.060Z,22.63
2022-12-04T19:54:19.429Z,26.13
2022-12-04T19:56:51.240Z,24.10
2022-12-04T19:59:21.240Z,21.57
2022-12-04T20:01:49.370Z,21.47
2022-12-04T20:04:17.794Z,20.23
2022-12-04T20:06:47.116Z,22.50
2022-12-04T20:09:16.308Z,21.87
2022-12-04T20:11:44.328Z,19.93
2022-12-04T20:14:12.324Z,19.77
2022-12-04T20:16:42.176Z,19.20
2022-12-04T20:19:13.382Z,19.43
2022-12-04T20:21:41.740Z,18.63
2022-12-04T20:24:12.586Z,18.43
2022-12-04T20:26:42.020Z,22.20
2022-12-04T20:29:12.981Z,18.30
2022-12-04T20:31:43.605Z,18.50
2022-12-04T20:34:12.650Z,18.47
2022-12-04T20:36:42.260Z,17.33
2022-12-04T20:39:10.446Z,18.37
2022-12-04T20:41:38.763Z,19.17
2022-12-04T20:44:09.629Z,15.67
2022-12-04T20:46:38.618Z,22.33
2022-12-04T20:49:09.782Z,17.33
2022-12-04T20:51:39.342Z,19.70
2022-12-04T20:54:08.526Z,19.60
2022-12-04T20:56:37.859Z,24.57
2022-12-04T20:59:07.938Z,19.27
2022-12-04T21:01:36.705Z,19.30
2022-12-04T21:04:05.337Z,22.23
2022-12-04T21:06:37.570Z,17.73
2022-12-04T21:09:07.215Z,19.67
2022-12-04T21:11:36.616Z,21.33
2022-12-04T21:14:23.224Z,21.07
2022-12-04T21:16:51.521Z,20.90
2022-12-04T21:19:21.425Z,21.97
2022-12-04T21:21:51.248Z,19.40
2022-12-04T21:24:20.622Z,18.37
2022-12-04T21:26:49.301Z,18.37
2022-12-04T21:29:17.755Z,23.90
2022-12-04T21:31:46.025Z,17.40
2022-12-04T21:34:15.464Z,15.83
2022-12-04T21:36:43.738Z,14.13
2022-12-04T21:39:13.321Z,17.63
2022-12-04T21:41:58.918Z,16.60
2022-12-04T21:44:26.921Z,14.93
2022-12-04T21:46:55.505Z,19.43
2022-12-04T21:49:23.808Z,14.20
2022-12-04T21:51:59.626Z,15.00
2022-12-04T21:54:29.192Z,14.67
2022-12-04T21:56:57.697Z,13.03
2022-12-04T21:59:28.786Z,13.70
2022-12-04T22:01:56.919Z,11.90
2022-12-04T22:04:25.139Z,16.90
2022-12-04T22:06:53.095Z,17.93
2022-12-04T22:09:21.082Z,18.73
2022-12-04T22:11:50.508Z,15.07
2022-12-04T22:14:18.527Z,14.60
2022-12-04T22:16:46.550Z,14.17
2022-12-04T22:19:14.739Z,13.80
2022-12-04T22:21:42.841Z,18.63
2022-12-04T22:24:11.047Z,14.97
2022-12-04T22:26:39.380Z,16.17
2022-12-04T22:29:41.562Z,16.30
2022-12-04T22:31:56.853Z,19.83
2022-12-04T22:34:24.845Z,21.90
2022-12-04T22:36:52.756Z,30.90
2022-12-04T22:39:20.757Z,25.47
2022-12-04T22:41:48.699Z,20.10
2022-12-04T22:44:18.225Z,22.90
2022-12-04T22:46:46.167Z,28.23
2022-12-04T22:49:14.163Z,23.20
2022-12-04T22:51:42.215Z,28.87
2022-12-04T22:54:13.848Z,19.50
2022-12-04T22:56:42.481Z,17.60
2022-12-04T22:59:10.468Z,15.43
2022-12-04T23:01:39.783Z,15.03
2022-12-04T23:04:07.747Z,16.33
2022-12-04T23:06:36.137Z,17.17
2022-12-04T23:09:06.103Z,23.33
2022-12-04T23:11:34.589Z,21.77
2022-12-04T23:14:03.390Z,23.00
2022-12-04T23:16:32.081Z,22.10
2022-12-04T23:19:01.634Z,16.53
2022-12-04T23:21:31.441Z,14.57
2022-12-04T23:23:59.476Z,14.67
2022-12-04T23:26:30.696Z,15.27
2022-12-04T23:28:58.772Z,13.97
2022-12-04T23:31:26.956Z,17.63
2022-12-04T23:33:54.928Z,25.57
2022-12-04T23:36:24.754Z,21.30
2022-12-04T23:38:54.777Z,21.70
2022-12-04T23:41:23.872Z,29.87
2022-12-04T23:43:52.723Z,56.53
2022-12-04T23:46:21.610Z,65.73
2022-12-04T23:48:49.600Z,40.17
2022-12-04T23:51:18.169Z,22.20
2022-12-04T23:53:47.596Z,49.43
2022-12-04T23:56:17.409Z,28.47
2022-12-04T23:58:49.394Z,20.93
